Overview Statistics Trail Chart Weather Telemetry Raw packets
 

This is the latest recevied weather packets stored in our database for station/object WW6Q. If no packets are shown the sender has not sent any weather packets the latest 10 day(s).

<< 94 95 96 97 98 99 100 >>
Time Temp. Humidity Pressure Rain* Wind** Luminosity Snow
1787925732 20.56° C 68% 1021.2 hPa 0 mm - 352 W/m² -
1787925431 20.56° C 65% 1020.9 hPa 0 mm - 224 W/m² -
1787925131 20° C 68% 1020.9 hPa 0 mm - 323 W/m² -
1787924829 20.56° C 67% 1020.8 hPa 0 mm - 183 W/m² -
1787924525 20.56° C 69% 1020.9 hPa 0 mm - 291 W/m² -
1787924221 20° C 70% 1020.8 hPa 0 mm - 275 W/m² -
1787923921 20° C 70% 1020.8 hPa 0 mm - 236 W/m² -
1787923615 20° C 69% 1020.8 hPa 0 mm - 283 W/m² -
1787923311 20° C 69% 1020.9 hPa 0 mm - 172 W/m² -
1787923010 20° C 70% 1020.9 hPa 0 mm - 157 W/m² -
1787922705 19.44° C 71% 1020.7 hPa 0 mm - 130 W/m² -
1787922404 20° C 71% 1020.7 hPa 0 mm - 131 W/m² -
1787922103 19.44° C 73% 1020.7 hPa 0 mm - 107 W/m² -
1787921802 18.89° C 75% 1020.8 hPa 0 mm - 102 W/m² -
1787921502 18.89° C 75% 1020.8 hPa 0 mm - 95 W/m² -
1787921196 18.33° C 76% 1020.8 hPa 0 mm - 85 W/m² -
1787920892 18.33° C 77% 1020.8 hPa 0 mm - 81 W/m² -
1787920587 17.78° C 78% 1020.6 hPa 0 mm - 67 W/m² -
1787920281 17.78° C 80% 1020.5 hPa 0 mm - 60 W/m² -
1787919980 17.22° C 81% 1020.6 hPa 0 mm - 57 W/m² -
1787919679 17.22° C 83% 1020.5 hPa 0 mm - 53 W/m² -
1787919373 17.22° C 83% 1020.4 hPa 0 mm - 49 W/m² -
1787919069 16.67° C 86% 1020.3 hPa 0 mm - 45 W/m² -
1787918764 16.11° C 89% 1020.3 hPa 0 mm - 40 W/m² -
1787918464 15.56° C 97% 1020.3 hPa 0 mm - 37 W/m² -

* Rain latest hour (hover to see other rain measurements)
** Current wind speed in m/s (hover to see current wind gust speed)